الصفحة الرئيسية
METAR-TAF:

METAR-TAF

مطار :

كلاله, إيران

دائرة عرض: 37-22-60N, خط طول: 55-27-07E, ارتفاع: 130 متر

مراقبة الطقس الحالي

تاريخ ووقت الإصدار 42 دقيقة قبل الساعة 09:00UTC
رياح هادئة
درجة الحرارة 30°درجة مئوية
الرطوبة 55%
ضغط 1009 hPa
الرؤية: 7000 متر
غيوم متفرقة على ارتفاع 3000 قدم
غيوم مفككة على ارتفاع 9000 قدم

METAR: OINE 140900Z 00000KT 7000 SCT030 BKN090 30/20 Q1009

زمن: 14:12 (09:42 UTC)


TAF: مفقودة

أرصاد الطقس والتوقعات من أكثر من 4000 مطار (تقارير الطقس للمطار METAR والتنبؤ بالطقس بالمطارTAF).

المحطات المتاحة هي النقط الصفراء والحمراء على الخريطة.

حرك المؤشر فوق النقطة لمعرفة اسم المحطة.

ثم انقر لمعرفة أرصاد وتوقعات الطقس.

لتغيير الخارطة: اضغط على الأزرار الخضراء مع رمز الصليب الأسود للتكبير. على الزر الأخضر مع شرطة للتصغير، أو على الأسهم الخضراء للخرائط المجاورة.


METAR-TAF: